Rumney, New Hampshire
Current Conditions -  °F | °C
As of 10:55 AM on Saturday 25 Oct 2014 (Local Time) from K1P1 Reporting Station
Clear Clear  
Wind Chill: 55°   Ceiling: Unl
Heat Index: 55°   Visibility: 10mi
Dew Point: 41°   Wind: 8mph
Humidity: 59%   Direction: 280°W
Pressure: 29.69"   Gusts: 21mph
Location:  43.81°N, 71.81°W
Report Text: K1P1 251455Z AUTO 28007G18KT 10SM CLR 13/05 A2969 RMK AO2 T01300051
Loading
Personal Weather Stations






























Interactive Weather Map
Tropical Storm Tracking
New forecast layout! Learn more

10-Day Weather Forecast

Advertisements
Track Severe Weather on mobile